Terminal Aerodrome Forecast
Issued by NWS

Home | Current Version | Previous Version | Text Only | Print | Product List | Glossary On
Versions: 1 2 3 4 5 6 7 8 9 10 11 12 13 14 15 16 17 18 19 20 21 22 23 24 25 26 27 28 29
000
FTUS43 KMKX 232328
TAFENW
TAF
KENW 232328Z 2400/2424 29005KT P6SM OVC110
     FM240300 29008KT 6SM -RA OVC060
     FM240600 29012G20KT 5SM RA OVC035
     FM241000 29011G19KT 3SM RA BR OVC008
     FM241200 30012G22KT 2SM RA BR OVC008
     FM241800 30018G34KT 3SM -RA OVC015=

USA.gov is the U.S. government's official web portal to all federal, state and local government web resources and services.